Time;durP1;ratioP1;P1;durP2;ratioP2;P2;SDS_P1;SDS_P2;PMS_P1;PMS_P2;Temp;Humidity;BMP_temperature;BMP_pressure;BME280_temperature;BME280_humidity;BME280_pressure;Samples;Min_cycle;Max_cycle;Signal;HPM_P1;HPM_P2
2022/12/05 00:00:13;;;;;;;16.10;6.90;;;4.20;99.90;;;;;;5021241;28;20037;-81
2022/12/05 00:02:39;;;;;;;15.65;6.40;;;4.40;99.90;;;;;;5004898;28;20048;-81
2022/12/05 00:05:05;;;;;;;17.70;7.15;;;5.60;99.90;;;;;;5021353;28;20128;-81
2022/12/05 00:07:31;;;;;;;14.68;6.47;;;4.40;99.90;;;;;;5021250;28;20044;-81
2022/12/05 00:09:56;;;;;;;15.55;7.45;;;4.20;99.90;;;;;;5037537;28;20036;-81
2022/12/05 00:12:22;;;;;;;11.75;6.25;;;4.40;99.90;;;;;;5037508;28;20044;-81
2022/12/05 00:14:47;;;;;;;14.02;7.03;;;5.30;99.90;;;;;;5037641;28;20492;-81
2022/12/05 00:17:13;;;;;;;16.15;6.15;;;4.40;99.90;;;;;;5037645;28;20040;-81
2022/12/05 00:19:39;;;;;;;14.70;6.18;;;5.30;99.90;;;;;;5020898;28;20037;-81
2022/12/05 00:22:04;;;;;;;13.65;6.00;;;4.40;99.90;;;;;;5037660;28;20118;-81
2022/12/05 00:24:30;;;;;;;16.23;6.55;;;6.30;99.90;;;;;;5021126;28;20052;-81
2022/12/05 00:26:56;;;;;;;13.68;5.85;;;4.40;99.90;;;;;;5036515;28;20045;-81
2022/12/05 00:29:21;;;;;;;12.13;5.93;;;4.40;99.90;;;;;;5021597;28;20132;-81
2022/12/05 00:31:47;;;;;;;12.63;6.80;;;4.10;99.90;;;;;;5021171;28;20559;-81
2022/12/05 00:34:13;;;;;;;14.88;6.75;;;4.60;99.90;;;;;;5037442;28;20041;-81
2022/12/05 00:36:39;;;;;;;16.52;6.50;;;4.50;99.90;;;;;;5021239;28;20120;-81
2022/12/05 00:39:10;;;;;;;17.23;6.72;;;4.50;99.90;;;;;;5021601;28;20033;-83
2022/12/05 00:41:37;;;;;;;14.68;6.80;;;5.30;99.90;;;;;;5022288;28;20036;-80
2022/12/05 00:44:03;;;;;;;16.73;6.82;;;4.50;99.90;;;;;;5022613;28;20037;-81
2022/12/05 00:46:31;;;;;;;14.10;6.13;;;4.50;99.90;;;;;;5039851;28;20041;-81
2022/12/05 00:48:58;;;;;;;19.00;7.40;;;4.40;99.90;;;;;;5039239;28;20080;-81
2022/12/05 00:51:33;;;;;;;11.15;6.68;;;4.50;99.90;;;;;;5039864;28;20127;-81
2022/12/05 00:54:01;;;;;;;12.77;6.78;;;4.50;99.90;;;;;;5023302;28;20093;-81
2022/12/05 00:56:30;;;;;;;16.30;7.07;;;4.50;99.90;;;;;;5039204;28;20090;-81
2022/12/05 00:58:57;;;;;;;13.70;6.20;;;4.50;99.90;;;;;;5039602;28;20037;-81
2022/12/05 01:01:45;;;;;;;13.32;7.22;;;4.60;99.90;;;;;;5038939;28;20037;-81
2022/12/05 01:04:13;;;;;;;16.15;7.65;;;4.60;99.90;;;;;;5040648;28;20033;-81
2022/12/05 01:06:40;;;;;;;14.15;6.65;;;4.60;99.90;;;;;;5039002;28;20431;-81
2022/12/05 01:09:06;;;;;;;10.63;5.38;;;4.60;99.90;;;;;;5038523;28;20052;-81
2022/12/05 01:11:32;;;;;;;12.57;6.32;;;4.60;99.90;;;;;;5021108;28;20107;-81
2022/12/05 01:13:58;;;;;;;20.65;6.70;;;4.70;99.90;;;;;;5021612;28;20048;-81
2022/12/05 01:16:31;;;;;;;15.43;6.90;;;4.70;99.90;;;;;;5037133;28;20554;-81
2022/12/05 01:18:58;;;;;;;15.05;7.47;;;4.70;99.90;;;;;;5037049;28;20076;-81
2022/12/05 01:21:24;;;;;;;20.33;8.93;;;4.70;99.90;;;;;;5037098;28;20486;-82
2022/12/05 01:23:50;;;;;;;18.55;8.35;;;4.70;99.90;;;;;;5037420;28;20095;-81
2022/12/05 01:26:17;;;;;;;18.77;7.90;;;5.90;99.90;;;;;;5020604;28;20099;-81
2022/12/05 01:28:43;;;;;;;15.40;7.40;;;4.90;99.90;;;;;;5020357;28;20068;-80
2022/12/05 01:31:27;;;;;;;17.90;8.05;;;4.70;99.90;;;;;;5036413;28;20045;-81
2022/12/05 01:33:55;;;;;;;12.98;7.00;;;4.80;99.90;;;;;;5019539;28;20131;-81
2022/12/05 01:36:22;;;;;;;19.35;8.38;;;5.40;99.90;;;;;;5035723;28;20044;-81
2022/12/05 01:38:48;;;;;;;18.10;8.57;;;4.80;99.90;;;;;;5035786;28;20098;-81
2022/12/05 01:41:18;;;;;;;17.25;6.97;;;5.20;99.90;;;;;;5019980;28;20040;-81
2022/12/05 01:44:03;;;;;;;12.80;6.30;;;4.80;99.90;;;;;;5036039;28;20048;-81
2022/12/05 01:46:32;;;;;;;13.98;7.05;;;4.80;99.90;;;;;;5035697;28;20090;-81
2022/12/05 01:49:15;;;;;;;15.15;6.80;;;4.80;99.90;;;;;;5035531;28;20048;-81
2022/12/05 01:51:45;;;;;;;13.25;6.90;;;4.80;99.90;;;;;;5032933;28;20123;-81
2022/12/05 01:54:12;;;;;;;16.27;8.40;;;4.90;99.90;;;;;;5035743;28;20037;-81
2022/12/05 01:56:43;;;;;;;16.75;7.22;;;5.30;99.90;;;;;;5035650;28;20037;-81
2022/12/05 01:59:10;;;;;;;18.30;8.00;;;5.30;99.90;;;;;;5035416;28;20044;-82
2022/12/05 02:01:36;;;;;;;16.67;7.25;;;4.90;99.90;;;;;;5019035;28;20045;-82
2022/12/05 02:04:02;;;;;;;18.95;7.60;;;4.90;99.90;;;;;;5035661;28;20517;-81
2022/12/05 02:06:30;;;;;;;17.73;7.72;;;4.90;99.90;;;;;;5018869;28;20033;-81
2022/12/05 02:08:56;;;;;;;14.48;7.22;;;4.90;99.90;;;;;;5035472;28;20133;-81
2022/12/05 02:11:24;;;;;;;20.55;7.75;;;4.90;99.90;;;;;;5035293;28;20075;-81
2022/12/05 02:13:53;;;;;;;18.58;7.50;;;4.90;99.90;;;;;;5018782;28;20052;-81
2022/12/05 02:16:34;;;;;;;17.58;7.22;;;4.90;99.90;;;;;;5018661;28;20051;-81
2022/12/05 02:19:15;;;;;;;16.20;7.45;;;6.50;99.90;;;;;;5035133;28;20043;-81
2022/12/05 02:21:46;;;;;;;11.35;6.50;;;4.90;99.90;;;;;;5018818;28;20377;-81
2022/12/05 02:24:30;;;;;;;11.80;7.03;;;4.90;99.90;;;;;;5018370;28;20041;-81
2022/12/05 02:27:35;;;;;;;15.27;6.45;;;4.90;99.90;;;;;;5035282;28;20049;-81
2022/12/05 02:30:20;;;;;;;12.25;7.20;;;4.90;99.90;;;;;;5029339;28;20041;-81
2022/12/05 02:33:09;;;;;;;15.30;6.38;;;4.90;99.90;;;;;;5035177;28;20044;-81
2022/12/05 02:35:48;;;;;;;12.90;6.35;;;4.90;99.90;;;;;;5018343;28;20128;-81
2022/12/05 02:38:21;;;;;;;14.60;6.70;;;4.90;99.90;;;;;;5018322;28;20127;-81
2022/12/05 02:40:49;;;;;;;11.65;6.63;;;4.90;99.90;;;;;;5034743;28;20047;-81
2022/12/05 02:43:44;;;;;;;18.13;6.50;;;4.90;99.90;;;;;;5034811;28;20045;-81
2022/12/05 02:46:15;;;;;;;12.13;6.53;;;4.90;99.90;;;;;;5012901;28;20056;-81
2022/12/05 02:48:44;;;;;;;11.45;6.05;;;5.80;99.90;;;;;;5019357;28;20045;-82
2022/12/05 02:51:14;;;;;;;17.02;6.90;;;5.00;99.90;;;;;;5039340;28;20041;-82
2022/12/05 02:53:42;;;;;;;12.18;5.63;;;4.90;99.90;;;;;;5022615;28;20399;-82
2022/12/05 02:56:08;;;;;;;12.98;6.63;;;4.90;99.90;;;;;;5022227;28;20053;-81
2022/12/05 02:58:44;;;;;;;13.70;6.53;;;5.00;99.90;;;;;;5022154;28;20049;-81
2022/12/05 03:01:09;;;;;;;12.63;5.55;;;4.90;99.90;;;;;;5039289;28;20471;-78
2022/12/05 03:06:20;;;;;;;13.48;6.20;;;5.00;99.90;;;;;;5034903;28;20412;-64
2022/12/05 03:08:59;;;;;;;12.98;6.00;;;4.90;99.90;;;;;;5018697;28;20045;-64
2022/12/05 03:11:29;;;;;;;17.73;6.32;;;5.00;99.90;;;;;;5036409;28;20038;-64
2022/12/05 03:13:58;;;;;;;14.35;5.43;;;5.00;99.90;;;;;;5036509;28;20034;-65
2022/12/05 03:16:38;;;;;;;13.25;5.32;;;5.00;99.90;;;;;;5036525;28;20442;-65
2022/12/05 03:19:16;;;;;;;16.55;5.68;;;5.00;99.90;;;;;;5018658;28;20049;-65
2022/12/05 03:22:02;;;;;;;9.15;4.93;;;5.00;99.90;;;;;;5018444;28;20045;-64
2022/12/05 03:24:29;;;;;;;11.18;4.47;;;5.00;99.90;;;;;;5018388;28;20049;-65
2022/12/05 03:27:12;;;;;;;10.00;4.60;;;5.00;99.90;;;;;;5036328;28;20038;-65
2022/12/05 03:29:43;;;;;;;9.13;4.80;;;5.00;99.90;;;;;;5036234;28;20432;-65
2022/12/05 03:32:27;;;;;;;7.97;4.07;;;5.00;99.90;;;;;;5018228;28;20399;-65
2022/12/05 03:34:59;;;;;;;10.15;4.45;;;5.00;99.90;;;;;;5018178;28;20450;-65
2022/12/05 03:37:36;;;;;;;7.50;3.97;;;5.00;99.90;;;;;;5018128;28;20091;-65
2022/12/05 03:40:11;;;;;;;9.68;3.92;;;5.00;99.90;;;;;;5036038;28;20049;-65
2022/12/05 03:42:45;;;;;;;8.88;4.75;;;5.00;99.90;;;;;;5036047;28;20080;-65
2022/12/05 03:45:16;;;;;;;8.95;4.03;;;5.00;99.90;;;;;;5035698;28;20042;-65
2022/12/05 03:48:04;;;;;;;10.05;4.68;;;5.10;99.90;;;;;;5017936;28;20175;-65
2022/12/05 03:50:30;;;;;;;8.88;3.97;;;5.00;99.90;;;;;;5035602;28;20128;-65
2022/12/05 03:53:18;;;;;;;7.55;3.15;;;5.10;99.90;;;;;;5018065;28;20045;-65
2022/12/05 03:55:49;;;;;;;8.75;3.97;;;5.10;99.90;;;;;;5035524;28;20091;-65
2022/12/05 03:58:28;;;;;;;7.57;3.97;;;5.10;99.90;;;;;;5035413;28;20053;-65
2022/12/05 04:00:56;;;;;;;6.22;3.97;;;5.10;99.90;;;;;;5035385;28;20084;-65
2022/12/05 04:03:37;;;;;;;7.90;4.03;;;5.00;99.90;;;;;;5017877;28;20515;-64
2022/12/05 04:06:09;;;;;;;9.27;3.95;;;5.10;99.90;;;;;;5017422;28;20089;-65
2022/12/05 04:08:42;;;;;;;5.82;3.42;;;5.10;99.90;;;;;;5001232;28;20049;-65
2022/12/05 04:11:15;;;;;;;5.53;3.55;;;5.10;99.90;;;;;;5017803;28;20239;-65
2022/12/05 04:13:51;;;;;;;8.55;4.30;;;5.10;99.90;;;;;;5035204;28;20171;-65
2022/12/05 04:21:36;;;;;;;6.43;3.67;;;5.10;99.90;;;;;;5035296;28;20041;-65
2022/12/05 04:22:16;;;;;;;7.47;3.45;;;5.10;99.90;;;;;;5035040;28;20408;-65
2022/12/05 04:27:38;;;;;;;6.18;3.42;;;5.10;99.90;;;;;;5034956;28;20049;-65
2022/12/05 04:30:07;;;;;;;5.63;3.47;;;5.10;99.90;;;;;;5035198;28;20038;-66
2022/12/05 04:32:51;;;;;;;6.85;3.40;;;5.10;99.90;;;;;;5017018;28;20041;-66
2022/12/05 04:35:49;;;;;;;6.15;3.00;;;5.10;99.90;;;;;;5035028;28;20397;-65
2022/12/05 04:38:22;;;;;;;5.43;3.30;;;5.10;99.90;;;;;;5034270;28;20053;-65
2022/12/05 04:41:01;;;;;;;4.50;2.60;;;5.10;99.90;;;;;;5034932;28;20419;-65
2022/12/05 04:43:29;;;;;;;3.53;2.05;;;5.10;99.90;;;;;;5017198;28;20052;-64
2022/12/05 04:45:57;;;;;;;3.65;2.47;;;5.10;99.90;;;;;;5035096;28;20072;-65
2022/12/05 04:48:26;;;;;;;5.68;2.60;;;5.10;99.90;;;;;;5034507;28;20045;-64
2022/12/05 04:50:54;;;;;;;6.65;2.60;;;5.10;99.90;;;;;;5034424;28;20052;-64
2022/12/05 04:53:24;;;;;;;5.82;2.40;;;5.10;99.90;;;;;;5034708;28;20039;-64
2022/12/05 04:55:52;;;;;;;5.18;2.50;;;5.10;99.90;;;;;;5034629;28;20041;-64
2022/12/05 04:58:20;;;;;;;4.03;2.42;;;5.10;99.90;;;;;;5034172;28;20049;-64
2022/12/05 05:01:16;;;;;;;8.02;2.60;;;5.10;99.90;;;;;;5016834;28;20106;-64
2022/12/05 05:03:57;;;;;;;3.35;2.13;;;5.10;99.90;;;;;;5034053;28;20044;-64
2022/12/05 05:06:22;;;;;;;3.87;2.07;;;5.10;99.90;;;;;;5034246;28;20543;-64
2022/12/05 05:08:56;;;;;;;3.97;2.65;;;5.10;99.90;;;;;;5034432;28;20073;-64
2022/12/05 05:11:25;;;;;;;4.85;2.63;;;5.10;99.90;;;;;;5033821;28;20033;-64
2022/12/05 05:13:51;;;;;;;4.32;1.90;;;5.20;99.90;;;;;;5016181;28;20085;-65
2022/12/05 05:16:38;;;;;;;4.55;2.17;;;5.20;99.90;;;;;;5034247;28;20037;-64
2022/12/05 05:19:05;;;;;;;4.85;2.38;;;5.10;99.90;;;;;;5033442;28;20072;-65
2022/12/05 05:21:36;;;;;;;3.30;1.70;;;5.10;99.90;;;;;;5016101;28;20041;-64
2022/12/05 05:24:03;;;;;;;4.00;2.33;;;5.10;99.90;;;;;;5034103;28;20048;-64
2022/12/05 05:26:31;;;;;;;2.72;1.50;;;5.20;99.90;;;;;;5016350;28;20045;-64
2022/12/05 05:28:58;;;;;;;4.30;1.77;;;5.20;99.90;;;;;;5033804;28;20045;-65
2022/12/05 05:31:23;;;;;;;2.42;1.60;;;5.20;99.90;;;;;;5033953;28;20053;-64
2022/12/05 05:33:51;;;;;;;2.83;1.77;;;5.20;99.90;;;;;;5033885;28;20476;-64
2022/12/05 05:36:17;;;;;;;4.15;1.88;;;5.20;99.90;;;;;;5033954;28;20037;-64
2022/12/05 05:38:45;;;;;;;4.18;1.92;;;5.20;99.90;;;;;;5016025;28;20033;-65
2022/12/05 05:41:13;;;;;;;4.22;2.20;;;5.10;99.90;;;;;;5033819;28;20033;-65
2022/12/05 05:43:39;;;;;;;4.50;2.30;;;5.20;99.90;;;;;;5033706;28;20033;-65
2022/12/05 05:46:05;;;;;;;3.08;1.92;;;5.10;99.90;;;;;;5033677;28;20041;-64
2022/12/05 05:48:31;;;;;;;3.72;2.03;;;5.20;99.90;;;;;;5033706;28;20532;-65
2022/12/05 05:51:03;;;;;;;2.65;1.58;;;5.20;99.90;;;;;;5033685;28;20069;-64
2022/12/05 05:53:29;;;;;;;5.00;1.77;;;5.20;99.90;;;;;;5015551;28;20041;-64
2022/12/05 05:55:55;;;;;;;3.08;1.67;;;5.20;99.90;;;;;;5033572;28;20044;-64
2022/12/05 05:58:21;;;;;;;3.85;2.22;;;5.20;99.90;;;;;;5033212;28;20045;-64
2022/12/05 06:00:46;;;;;;;6.55;1.90;;;5.20;99.90;;;;;;5033413;28;20033;-65
2022/12/05 06:03:12;;;;;;;2.33;1.45;;;5.20;99.90;;;;;;5015472;28;20049;-65
2022/12/05 06:05:38;;;;;;;4.72;1.73;;;5.20;99.90;;;;;;5032934;28;20093;-64
2022/12/05 06:08:04;;;;;;;3.42;1.98;;;5.20;99.90;;;;;;5015370;28;20107;-64
2022/12/05 06:10:29;;;;;;;3.65;1.92;;;5.20;99.90;;;;;;5033058;28;20033;-65
2022/12/05 06:12:59;;;;;;;2.60;1.70;;;5.20;99.90;;;;;;5015338;28;20104;-65
2022/12/05 06:15:25;;;;;;;8.82;1.98;;;5.20;99.90;;;;;;5033282;28;20120;-67
2022/12/05 06:17:50;;;;;;;3.08;1.80;;;5.20;99.90;;;;;;5033171;28;20504;-65
2022/12/05 06:20:16;;;;;;;6.25;2.20;;;5.20;99.90;;;;;;5033248;28;20404;-65
2022/12/05 06:22:42;;;;;;;6.35;2.17;;;5.20;99.90;;;;;;4998716;28;20408;-65
2022/12/05 06:25:07;;;;;;;6.60;2.33;;;5.20;99.90;;;;;;5033140;28;20048;-64
2022/12/05 06:27:33;;;;;;;5.72;2.78;;;5.20;99.90;;;;;;5033092;28;20041;-64
2022/12/05 06:29:59;;;;;;;4.80;2.60;;;5.20;99.90;;;;;;5033081;28;20378;-64
2022/12/05 06:32:27;;;;;;;5.63;2.30;;;5.20;99.90;;;;;;5033087;28;20048;-63
2022/12/05 06:34:52;;;;;;;4.70;2.38;;;5.20;99.90;;;;;;5032732;28;20052;-64
2022/12/05 06:37:18;;;;;;;5.32;2.58;;;5.20;99.90;;;;;;5032747;28;20041;-62
2022/12/05 06:39:43;;;;;;;3.85;2.22;;;5.30;99.90;;;;;;5032997;28;20037;-63
2022/12/05 06:42:09;;;;;;;2.70;1.95;;;5.20;99.90;;;;;;5032997;28;20037;-63
2022/12/05 06:44:35;;;;;;;4.82;2.22;;;5.20;99.90;;;;;;5015363;28;20120;-62
2022/12/05 06:47:00;;;;;;;3.75;2.30;;;5.20;99.90;;;;;;5032959;28;20121;-64
2022/12/05 06:49:31;;;;;;;2.40;1.50;;;5.20;99.90;;;;;;5032912;28;20046;-64
2022/12/05 06:51:57;;;;;;;6.07;2.55;;;5.20;99.90;;;;;;5032665;28;20056;-64
2022/12/05 06:54:23;;;;;;;3.65;2.28;;;5.20;99.90;;;;;;5032940;28;20408;-64
2022/12/05 06:56:48;;;;;;;3.33;2.15;;;5.30;99.90;;;;;;5014760;28;20045;-64
2022/12/05 06:59:14;;;;;;;3.40;1.98;;;5.20;99.90;;;;;;5032821;28;20044;-64
2022/12/05 07:01:40;;;;;;;4.28;2.17;;;5.20;99.90;;;;;;5032554;28;20400;-65
2022/12/05 07:04:25;;;;;;;4.68;2.67;;;5.20;99.90;;;;;;5032626;28;20135;-65
2022/12/05 07:06:52;;;;;;;3.63;2.47;;;5.20;99.90;;;;;;5032803;28;20476;-63
2022/12/05 07:09:19;;;;;;;5.35;3.03;;;5.30;99.90;;;;;;5032787;28;20045;-63
2022/12/05 07:11:50;;;;;;;8.82;2.78;;;5.30;99.90;;;;;;5032499;28;20056;-65
2022/12/05 07:14:16;;;;;;;8.70;2.55;;;5.20;99.90;;;;;;5015039;28;20147;-65
2022/12/05 07:16:42;;;;;;;4.07;2.35;;;5.30;99.90;;;;;;5032650;28;20045;-64
2022/12/05 07:19:09;;;;;;;3.97;2.22;;;5.20;99.90;;;;;;5032531;28;20476;-64
2022/12/05 07:21:35;;;;;;;4.38;2.58;;;5.30;99.90;;;;;;5014861;28;20049;-64
2022/12/05 07:24:00;;;;;;;5.32;2.60;;;5.20;99.90;;;;;;5014891;28;20048;-64
2022/12/05 07:26:26;;;;;;;4.70;3.15;;;5.30;99.90;;;;;;5032707;28;20072;-64
2022/12/05 07:28:55;;;;;;;9.45;3.83;;;5.30;99.90;;;;;;5032602;28;20045;-64
2022/12/05 07:31:21;;;;;;;6.90;2.92;;;5.30;99.90;;;;;;5032481;28;20039;-64
2022/12/05 07:33:48;;;;;;;6.15;3.05;;;5.30;99.90;;;;;;5014570;28;20033;-64
2022/12/05 07:36:17;;;;;;;10.32;3.47;;;5.30;99.90;;;;;;5035136;28;20037;-64
2022/12/05 07:38:43;;;;;;;4.53;2.50;;;5.30;99.90;;;;;;5036046;28;20045;-64
2022/12/05 07:41:21;;;;;;;7.07;2.70;;;5.30;99.90;;;;;;5018089;28;20430;-64
2022/12/05 07:43:46;;;;;;;10.80;3.17;;;5.20;99.90;;;;;;5018365;28;20420;-63
2022/12/05 07:46:12;;;;;;;4.68;2.85;;;5.30;99.90;;;;;;5017919;28;20053;-64
2022/12/05 07:48:38;;;;;;;4.57;2.58;;;5.30;99.90;;;;;;5035356;28;20089;-64
2022/12/05 07:51:05;;;;;;;4.53;2.85;;;5.30;99.90;;;;;;5035602;28;20115;-64
2022/12/05 07:53:32;;;;;;;4.95;2.88;;;5.30;99.90;;;;;;5017531;28;20051;-64
2022/12/05 07:55:59;;;;;;;6.90;3.33;;;5.30;99.90;;;;;;5035401;28;20038;-64
2022/12/05 07:58:27;;;;;;;6.38;2.60;;;5.30;99.90;;;;;;5017433;28;20069;-63
2022/12/05 08:00:52;;;;;;;8.10;3.08;;;5.20;99.90;;;;;;5035402;28;20041;-64
2022/12/05 08:03:18;;;;;;;4.88;2.78;;;5.30;99.90;;;;;;5035424;28;20041;-63
2022/12/05 08:05:43;;;;;;;5.78;2.78;;;5.20;99.90;;;;;;5034862;28;20107;-64
2022/12/05 08:08:09;;;;;;;6.97;3.38;;;5.30;99.90;;;;;;5035324;28;20049;-63
2022/12/05 08:10:35;;;;;;;5.30;2.80;;;5.20;99.90;;;;;;5035299;28;20041;-63
2022/12/05 08:13:00;;;;;;;7.18;3.20;;;5.20;99.90;;;;;;5035216;28;20041;-63
2022/12/05 08:15:26;;;;;;;4.20;2.15;;;5.20;99.90;;;;;;5035143;28;20042;-64
2022/12/05 08:17:51;;;;;;;6.95;3.25;;;5.20;99.90;;;;;;5017041;28;20108;-63
2022/12/05 08:20:17;;;;;;;5.53;2.42;;;5.20;99.90;;;;;;5035083;28;20043;-63
2022/12/05 08:22:42;;;;;;;5.72;3.20;;;5.20;99.90;;;;;;5035072;28;20550;-63
2022/12/05 08:25:08;;;;;;;6.63;2.50;;;6.70;99.90;;;;;;5017021;28;20060;-63
2022/12/05 08:27:34;;;;;;;7.72;3.22;;;5.30;99.90;;;;;;5016994;28;20096;-63
2022/12/05 08:30:00;;;;;;;6.88;2.88;;;5.20;99.90;;;;;;5034870;28;20091;-63
2022/12/05 08:32:26;;;;;;;4.90;2.80;;;5.30;99.90;;;;;;5034860;28;20044;-63
2022/12/05 08:34:52;;;;;;;5.18;3.08;;;5.30;99.90;;;;;;5034743;28;20041;-63
2022/12/05 08:37:17;;;;;;;6.50;2.25;;;5.20;99.90;;;;;;5017051;28;20057;-63
2022/12/05 08:39:43;;;;;;;6.72;3.10;;;5.20;99.90;;;;;;5016869;28;20049;-63
2022/12/05 08:42:09;;;;;;;4.45;2.58;;;5.30;99.90;;;;;;5017296;28;20040;-63
2022/12/05 08:44:34;;;;;;;4.75;2.85;;;5.20;99.90;;;;;;5034902;28;20091;-64
2022/12/05 08:47:00;;;;;;;6.03;3.33;;;5.30;99.90;;;;;;5033469;28;20567;-64
2022/12/05 08:49:27;;;;;;;5.80;2.88;;;5.30;99.90;;;;;;5034720;28;20048;-64
2022/12/05 08:51:52;;;;;;;6.00;3.15;;;5.30;99.90;;;;;;5034646;28;20391;-63
2022/12/05 08:54:18;;;;;;;7.72;2.92;;;5.30;99.90;;;;;;5034656;28;20044;-64
2022/12/05 08:56:43;;;;;;;6.00;2.95;;;5.30;99.90;;;;;;5016920;28;20173;-64
2022/12/05 08:59:09;;;;;;;6.15;2.85;;;5.30;99.90;;;;;;5034104;28;20084;-64
2022/12/05 09:01:37;;;;;;;3.50;2.35;;;5.30;99.90;;;;;;5016530;28;20042;-64
2022/12/05 09:04:04;;;;;;;8.55;3.40;;;5.30;99.90;;;;;;5034385;28;20179;-64
2022/12/05 09:06:31;;;;;;;7.88;2.70;;;5.20;99.90;;;;;;5016507;28;20037;-64
2022/12/05 09:09:03;;;;;;;4.70;2.72;;;5.20;99.90;;;;;;5034439;28;20112;-63
2022/12/05 09:11:32;;;;;;;7.50;3.05;;;5.20;99.90;;;;;;5034158;28;20041;-63
2022/12/05 09:13:59;;;;;;;5.80;2.67;;;5.20;99.90;;;;;;5034336;28;20048;-64
2022/12/05 09:16:30;;;;;;;5.57;3.22;;;5.20;99.90;;;;;;5016504;28;20045;-63
2022/12/05 09:18:57;;;;;;;5.93;2.70;;;5.30;99.90;;;;;;5034186;28;20038;-63
2022/12/05 09:21:25;;;;;;;7.22;2.75;;;5.20;99.90;;;;;;5016233;28;20048;-64
2022/12/05 09:23:51;;;;;;;6.78;2.20;;;5.20;99.90;;;;;;5034127;28;20042;-63
2022/12/05 09:26:22;;;;;;;8.25;2.78;;;5.20;99.90;;;;;;5034074;28;20037;-63
2022/12/05 09:28:47;;;;;;;4.90;2.85;;;5.20;99.90;;;;;;5033764;28;20045;-63
2022/12/05 09:31:16;;;;;;;6.43;2.67;;;5.20;99.90;;;;;;5034008;28;20045;-63
2022/12/05 09:33:42;;;;;;;5.28;2.40;;;5.20;99.90;;;;;;5033963;28;20444;-63
2022/12/05 09:36:13;;;;;;;4.10;2.47;;;5.20;99.90;;;;;;5015887;28;20081;-64
2022/12/05 09:38:39;;;;;;;;;;;5.20;99.90;;;;;;5016210;28;20447;-63
2022/12/05 09:41:10;;;;;;;6.65;2.67;;;5.20;99.90;;;;;;5016128;28;19924;-64
2022/12/05 09:43:59;;;;;;;5.32;2.50;;;5.20;99.90;;;;;;5033762;28;20080;-63
2022/12/05 09:46:53;;;;;;;4.45;2.30;;;5.30;99.90;;;;;;5033770;28;20026;-63
2022/12/05 09:49:20;;;;;;;8.13;2.58;;;5.20;99.90;;;;;;5032874;28;20041;-63
2022/12/05 09:51:49;;;;;;;5.68;2.67;;;5.20;99.90;;;;;;5032736;28;20077;-63
2022/12/05 09:54:15;;;;;;;4.35;2.72;;;5.30;99.90;;;;;;4998648;28;20124;-64
2022/12/05 09:56:43;;;;;;;6.97;3.17;;;5.30;99.90;;;;;;5032676;28;20041;-63
2022/12/05 09:59:15;;;;;;;5.93;3.00;;;5.30;99.90;;;;;;5032218;28;20099;-63
2022/12/05 10:02:02;;;;;;;6.28;3.05;;;5.30;99.90;;;;;;5014576;28;20034;-63
2022/12/05 10:04:32;;;;;;;6.57;2.85;;;5.30;99.90;;;;;;5032169;28;20069;-64
2022/12/05 10:07:05;;;;;;;6.47;2.78;;;5.30;99.90;;;;;;5032294;28;20084;-64
2022/12/05 10:09:51;;;;;;;5.32;2.90;;;5.20;99.90;;;;;;5014576;28;20122;-64
2022/12/05 10:12:46;;;;;;;6.20;2.33;;;5.30;99.90;;;;;;5032504;28;20037;-64
2022/12/05 10:15:28;;;;;;;5.30;2.83;;;5.30;99.90;;;;;;5014423;28;20125;-64
2022/12/05 10:18:12;;;;;;;7.82;3.00;;;5.30;99.90;;;;;;5032259;28;20037;-63
2022/12/05 10:20:42;;;;;;;8.25;2.72;;;5.30;99.90;;;;;;5032154;28;20536;-63
2022/12/05 10:23:19;;;;;;;5.72;2.70;;;5.20;99.90;;;;;;5032362;28;20049;-63
2022/12/05 10:25:45;;;;;;;7.97;3.08;;;5.30;99.90;;;;;;5014683;28;20120;-63
2022/12/05 10:28:26;;;;;;;4.93;2.75;;;5.30;99.90;;;;;;5014268;28;20120;-63
2022/12/05 10:30:54;;;;;;;;;;;5.30;99.90;;;;;;5000066;28;20049;-64
2022/12/05 10:33:22;;;;;;;4.15;2.55;;;5.30;99.90;;;;;;5014286;28;19970;-63
2022/12/05 10:35:52;;;;;;;7.40;3.38;;;5.20;99.90;;;;;;5032188;28;20049;-63
2022/12/05 10:38:27;;;;;;;4.20;2.45;;;5.30;99.90;;;;;;5032393;28;20049;-63
2022/12/05 10:40:58;;;;;;;5.32;2.78;;;5.20;99.90;;;;;;4997774;28;20057;-63
2022/12/05 10:43:29;;;;;;;4.65;2.35;;;5.20;99.90;;;;;;5014413;28;20037;-63
2022/12/05 10:45:54;;;;;;;6.43;3.17;;;5.30;99.90;;;;;;5032149;28;20490;-63
2022/12/05 10:48:21;;;;;;;5.15;2.70;;;5.30;99.90;;;;;;5032101;28;20049;-63
2022/12/05 10:50:53;;;;;;;5.60;2.55;;;5.30;99.90;;;;;;5031715;28;20171;-63
2022/12/05 10:53:36;;;;;;;7.05;2.60;;;5.30;99.90;;;;;;5032011;28;20037;-63
2022/12/05 10:56:02;;;;;;;6.18;2.53;;;5.30;99.90;;;;;;5032045;28;20420;-63
2022/12/05 10:58:28;;;;;;;3.17;2.10;;;5.30;99.90;;;;;;5031955;28;20049;-63
2022/12/05 11:00:56;;;;;;;5.93;3.10;;;5.30;99.90;;;;;;5013936;28;20046;-63
2022/12/05 11:03:24;;;;;;;4.30;2.08;;;5.30;99.90;;;;;;5013876;28;20050;-63
2022/12/05 11:05:53;;;;;;;4.80;2.88;;;5.30;99.90;;;;;;5031462;28;20067;-63
2022/12/05 11:08:30;;;;;;;4.95;2.72;;;5.30;99.90;;;;;;5031637;28;20046;-63
2022/12/05 11:11:16;;;;;;;6.05;2.78;;;5.30;99.90;;;;;;5034211;28;20499;-63
2022/12/05 11:13:57;;;;;;;4.03;2.28;;;5.30;99.90;;;;;;5035506;28;20120;-63
2022/12/05 11:16:35;;;;;;;4.05;1.85;;;5.30;99.90;;;;;;5035689;28;20369;-64
2022/12/05 11:19:35;;;;;;;3.97;1.98;;;5.30;99.90;;;;;;5017691;28;20041;-64
2022/12/05 11:22:02;;;;;;;5.30;2.38;;;5.30;99.90;;;;;;5035548;28;20034;-64
2022/12/05 11:24:30;;;;;;;4.85;2.50;;;5.40;99.90;;;;;;5017465;28;20095;-64
2022/12/05 11:26:58;;;;;;;5.07;2.60;;;5.40;99.90;;;;;;5017489;28;20051;-64
2022/12/05 11:29:37;;;;;;;4.05;2.35;;;5.40;99.90;;;;;;5035492;28;20431;-64
2022/12/05 11:32:15;;;;;;;4.13;2.25;;;5.40;99.90;;;;;;5035385;28;20120;-64
2022/12/05 11:34:55;;;;;;;6.10;2.95;;;5.40;99.90;;;;;;5035438;28;20080;-64
2022/12/05 11:37:25;;;;;;;5.53;2.53;;;5.40;99.90;;;;;;5017607;28;20045;-64
2022/12/05 11:39:51;;;;;;;4.70;2.58;;;5.30;99.90;;;;;;5017145;28;20124;-63
2022/12/05 11:42:32;;;;;;;6.15;2.35;;;5.40;99.90;;;;;;5034890;28;20168;-64
2022/12/05 11:45:28;;;;;;;4.55;2.83;;;5.40;99.90;;;;;;5035125;28;20488;-65
2022/12/05 11:48:18;;;;;;;4.97;2.83;;;5.40;99.90;;;;;;5034868;28;20139;-65
2022/12/05 11:50:52;;;;;;;8.50;2.67;;;5.40;99.90;;;;;;5034838;28;20110;-65
2022/12/05 11:53:37;;;;;;;3.67;2.17;;;5.40;99.90;;;;;;5035016;28;20095;-65
2022/12/05 11:56:31;;;;;;;5.22;2.47;;;5.40;99.90;;;;;;5016951;28;20489;-63
2022/12/05 11:59:10;;;;;;;4.95;2.40;;;5.40;99.90;;;;;;5016925;28;20120;-64
2022/12/05 12:01:52;;;;;;;4.25;2.25;;;5.30;99.90;;;;;;5034881;28;20033;-64
2022/12/05 12:04:40;;;;;;;4.65;2.13;;;5.40;99.90;;;;;;5034398;28;20100;-64
2022/12/05 12:07:24;;;;;;;4.60;2.22;;;5.30;99.90;;;;;;5034757;28;20045;-63
2022/12/05 12:10:00;;;;;;;8.18;2.75;;;5.40;99.90;;;;;;5034973;28;20373;-64
2022/12/05 12:12:44;;;;;;;4.07;2.03;;;5.30;99.90;;;;;;5016601;28;20051;-64
2022/12/05 12:15:21;;;;;;;3.78;2.28;;;5.40;99.90;;;;;;5034582;28;20533;-65
2022/12/05 12:18:14;;;;;;;4.35;2.15;;;5.40;99.90;;;;;;5034598;28;20045;-64
2022/12/05 12:21:03;;;;;;;4.25;2.00;;;5.40;99.90;;;;;;5016626;28;20388;-64
2022/12/05 12:24:06;;;;;;;3.63;1.88;;;5.40;99.90;;;;;;5034438;28;20052;-64
2022/12/05 12:27:02;;;;;;;4.22;1.85;;;5.40;99.90;;;;;;5016619;28;20052;-64
2022/12/05 12:29:43;;;;;;;3.63;1.73;;;5.40;99.90;;;;;;5034374;28;20046;-64
2022/12/05 12:32:25;;;;;;;8.73;2.03;;;5.40;99.90;;;;;;5016290;28;20049;-64
2022/12/05 12:35:15;;;;;;;3.00;1.80;;;5.40;99.90;;;;;;5033896;28;20111;-64
2022/12/05 12:38:06;;;;;;;4.05;1.88;;;5.40;99.90;;;;;;5034224;28;20457;-64
2022/12/05 12:40:45;;;;;;;3.92;1.98;;;5.40;99.90;;;;;;5016160;28;20404;-64
2022/12/05 12:43:23;;;;;;;2.67;1.80;;;5.40;99.90;;;;;;5034115;28;20060;-64
2022/12/05 12:46:07;;;;;;;4.55;1.63;;;5.40;99.90;;;;;;5034047;28;20370;-64
2022/12/05 12:49:12;;;;;;;5.65;2.80;;;5.40;99.90;;;;;;5033742;28;20037;-64
2022/12/05 12:51:45;;;;;;;3.70;2.30;;;5.50;99.90;;;;;;5033888;28;20045;-65
2022/12/05 12:54:43;;;;;;;5.90;2.53;;;5.40;99.90;;;;;;5033891;28;20448;-65
2022/12/05 12:57:47;;;;;;;5.40;2.60;;;5.40;99.90;;;;;;5030452;28;20056;-64
2022/12/05 13:00:30;;;;;;;5.63;2.38;;;5.50;99.90;;;;;;4993575;28;20057;-65
2022/12/05 13:03:09;;;;;;;5.75;2.75;;;5.40;99.90;;;;;;5015671;28;20114;-64
2022/12/05 13:05:42;;;;;;;3.95;2.25;;;5.40;99.90;;;;;;5033345;28;20397;-65
2022/12/05 13:08:15;;;;;;;5.10;2.05;;;5.40;99.90;;;;;;5015545;28;20045;-65
2022/12/05 13:10:46;;;;;;;3.72;1.83;;;5.40;99.90;;;;;;5015528;28;20046;-65
2022/12/05 13:13:22;;;;;;;3.60;1.83;;;5.40;99.90;;;;;;5033140;28;20033;-64
2022/12/05 13:15:52;;;;;;;2.63;1.75;;;5.40;99.90;;;;;;5033143;28;20049;-64
2022/12/05 13:18:21;;;;;;;7.97;2.05;;;5.40;99.90;;;;;;5033303;28;20057;-64
2022/12/05 13:20:50;;;;;;;5.82;2.13;;;5.50;99.90;;;;;;5032979;28;20083;-64
2022/12/05 13:23:19;;;;;;;3.10;2.00;;;5.40;99.90;;;;;;5033357;28;20408;-64
2022/12/05 13:25:47;;;;;;;5.45;2.60;;;5.50;99.90;;;;;;5032878;28;20041;-64
2022/12/05 13:28:22;;;;;;;3.90;1.80;;;5.50;99.90;;;;;;5033204;28;20373;-63